createdAt,value
2022-07-31T00:03:06.291Z,965.59
2022-07-31T00:08:08.114Z,965.64
2022-07-31T00:13:10.385Z,965.61
2022-07-31T00:18:11.389Z,965.6
2022-07-31T00:23:12.782Z,965.63
2022-07-31T00:28:14.389Z,965.59
2022-07-31T00:33:16.278Z,965.49
2022-07-31T00:38:26.731Z,965.48
2022-07-31T00:43:19.349Z,965.48
2022-07-31T00:48:21.037Z,965.56
2022-07-31T00:53:22.865Z,965.57
2022-07-31T00:58:24.839Z,965.51
2022-07-31T01:03:26.210Z,965.55
2022-07-31T01:08:28.270Z,965.58
2022-07-31T01:13:29.660Z,965.62
2022-07-31T01:18:30.734Z,965.53
2022-07-31T01:23:32.848Z,965.6
2022-07-31T01:28:34.254Z,965.5
2022-07-31T01:33:36.270Z,965.53
2022-07-31T01:38:37.449Z,965.55
2022-07-31T01:43:38.993Z,965.49
2022-07-31T01:48:40.992Z,965.48
2022-07-31T01:53:42.630Z,965.46
2022-07-31T01:58:44.501Z,965.37
2022-07-31T02:03:46.583Z,965.39
2022-07-31T02:08:48.604Z,965.4
2022-07-31T02:13:50.679Z,965.43
2022-07-31T02:18:52.697Z,965.37
2022-07-31T02:23:54.723Z,965.4
2022-07-31T02:54:05.704Z,965.36
2022-07-31T02:59:07.435Z,965.37
2022-07-31T03:19:14.089Z,965.37
2022-07-31T03:24:16.175Z,965.35
2022-07-31T03:29:38.978Z,965.34
2022-07-31T03:34:19.595Z,965.38
2022-07-31T03:39:21.450Z,965.33
2022-07-31T03:54:26.158Z,965.25
2022-07-31T03:59:27.635Z,965.25
2022-07-31T04:04:29.172Z,965.29
2022-07-31T04:09:31.241Z,965.35
2022-07-31T04:14:32.986Z,965.36
2022-07-31T04:19:34.295Z,965.37
2022-07-31T04:24:35.959Z,965.35
2022-07-31T04:29:37.377Z,965.37
2022-07-31T04:34:38.620Z,965.46
2022-07-31T04:39:40.116Z,965.48
2022-07-31T04:44:42.014Z,965.55
2022-07-31T04:49:44.086Z,965.57
2022-07-31T04:54:45.934Z,965.58
2022-07-31T04:59:58.326Z,965.59
2022-07-31T05:04:52.428Z,965.59
2022-07-31T05:09:50.120Z,965.58
2022-07-31T05:14:52.254Z,965.48
2022-07-31T05:19:53.595Z,965.48
2022-07-31T05:24:55.462Z,965.43
2022-07-31T05:29:56.814Z,965.47
2022-07-31T05:34:58.367Z,965.53
2022-07-31T05:40:00.302Z,965.62
2022-07-31T05:45:01.671Z,965.63
2022-07-31T05:50:03.481Z,965.59
2022-07-31T05:55:04.705Z,965.63
2022-07-31T06:00:06.880Z,965.65
2022-07-31T06:05:08.089Z,965.66
2022-07-31T06:10:09.629Z,965.69
2022-07-31T06:15:11.641Z,965.72
2022-07-31T06:20:13.297Z,965.74
2022-07-31T06:25:15.416Z,965.75
2022-07-31T06:30:17.230Z,965.8
2022-07-31T06:35:18.921Z,965.79
2022-07-31T06:40:20.216Z,965.73
2022-07-31T06:45:41.808Z,965.68
2022-07-31T06:50:23.254Z,965.69
2022-07-31T06:55:24.786Z,965.74
2022-07-31T07:00:26.101Z,965.77
2022-07-31T07:05:28.076Z,965.75
2022-07-31T07:10:29.682Z,965.84
2022-07-31T07:15:31.072Z,965.85
2022-07-31T07:20:32.878Z,965.84
2022-07-31T07:25:35.097Z,965.75
2022-07-31T07:30:36.893Z,965.7
2022-07-31T07:35:38.853Z,965.8
2022-07-31T07:40:40.090Z,965.8
2022-07-31T07:45:41.650Z,965.81
2022-07-31T07:50:43.139Z,965.73
2022-07-31T07:55:44.471Z,965.68
2022-07-31T08:00:46.431Z,965.63
2022-07-31T08:05:48.345Z,965.63
2022-07-31T08:10:49.919Z,965.6
2022-07-31T08:15:51.153Z,965.62
2022-07-31T08:20:53.193Z,965.63
2022-07-31T08:25:55.272Z,965.58
2022-07-31T08:30:57.115Z,965.49
2022-07-31T08:35:58.515Z,965.48
2022-07-31T08:41:06.431Z,965.42
2022-07-31T08:46:08.615Z,965.35
2022-07-31T08:51:10.406Z,965.39
2022-07-31T08:56:11.719Z,965.36
2022-07-31T09:01:13.790Z,965.43
2022-07-31T09:06:15.505Z,965.41
2022-07-31T09:11:16.706Z,965.33
2022-07-31T09:16:21.579Z,965.29
2022-07-31T09:21:20.340Z,965.29
2022-07-31T09:26:21.735Z,965.21
2022-07-31T09:31:23.331Z,965.18
2022-07-31T09:36:24.561Z,965.14
2022-07-31T09:41:53.756Z,965.16
2022-07-31T09:46:28.093Z,965.17
2022-07-31T09:51:29.508Z,965.12
2022-07-31T09:56:31.633Z,965.04
2022-07-31T10:01:33.906Z,965.03
2022-07-31T10:06:34.888Z,965.01
2022-07-31T10:11:36.681Z,964.93
2022-07-31T10:16:38.136Z,964.92
2022-07-31T10:21:39.705Z,964.8
2022-07-31T10:31:43.879Z,964.8
2022-07-31T10:36:45.706Z,964.74
2022-07-31T10:41:47.681Z,964.79
2022-07-31T10:46:49.072Z,964.69
2022-07-31T10:51:51.011Z,964.7
2022-07-31T10:56:53.015Z,964.66
2022-07-31T11:01:54.552Z,964.58
2022-07-31T11:06:55.837Z,964.61
2022-07-31T11:11:57.120Z,964.51
2022-07-31T11:16:58.873Z,964.5
2022-07-31T11:22:00.474Z,964.46
2022-07-31T11:27:02.814Z,964.46
2022-07-31T11:32:04.386Z,964.45
2022-07-31T11:37:06.742Z,964.47
2022-07-31T11:42:07.487Z,964.44
2022-07-31T11:47:27.715Z,964.41
2022-07-31T11:52:10.517Z,964.45
2022-07-31T11:57:12.531Z,964.46
2022-07-31T12:02:14.399Z,964.41
2022-07-31T12:07:16.005Z,964.42
2022-07-31T12:12:17.803Z,964.32
2022-07-31T12:17:19.743Z,964.3
2022-07-31T12:22:21.516Z,964.23
2022-07-31T12:27:22.967Z,964.22
2022-07-31T12:32:24.696Z,964.2
2022-07-31T12:37:25.974Z,964.19
2022-07-31T12:42:30.689Z,964.1
2022-07-31T12:47:29.618Z,964.17
2022-07-31T12:52:31.223Z,964.11
2022-07-31T12:57:32.619Z,964.08
2022-07-31T13:02:34.257Z,963.99
2022-07-31T13:07:35.855Z,963.94
2022-07-31T13:12:37.043Z,963.93
2022-07-31T13:17:42.262Z,963.92
2022-07-31T13:22:39.921Z,963.81
2022-07-31T13:27:41.417Z,963.8
2022-07-31T13:32:42.675Z,963.78
2022-07-31T13:37:44.368Z,963.71
2022-07-31T13:42:46.238Z,963.68
2022-07-31T13:47:50.358Z,963.7
2022-07-31T13:52:48.841Z,963.7
2022-07-31T13:57:50.485Z,963.67
2022-07-31T14:02:51.862Z,963.66
2022-07-31T14:07:53.142Z,963.5
2022-07-31T14:12:54.596Z,963.52
2022-07-31T14:17:56.633Z,963.58
2022-07-31T14:22:58.300Z,963.49
2022-07-31T14:28:00.118Z,963.51
2022-07-31T14:33:01.963Z,963.46
2022-07-31T14:38:04.515Z,963.45
2022-07-31T14:43:05.792Z,963.41
2022-07-31T14:48:07.371Z,963.4
2022-07-31T14:53:08.848Z,963.37
2022-07-31T14:58:10.284Z,963.32
2022-07-31T15:03:12.346Z,963.32
2022-07-31T15:08:14.297Z,963.35
2022-07-31T15:13:15.827Z,963.26
2022-07-31T15:18:17.034Z,963.27
2022-07-31T15:23:18.350Z,963.29
2022-07-31T15:28:20.001Z,963.27
2022-07-31T15:33:21.303Z,963.15
2022-07-31T15:38:22.932Z,963.03
2022-07-31T15:43:24.542Z,962.97
2022-07-31T15:48:26.493Z,963.01
2022-07-31T15:53:30.067Z,962.93
2022-07-31T15:58:29.289Z,962.96
2022-07-31T16:03:36.822Z,962.97
2022-07-31T16:08:35.339Z,962.99
2022-07-31T16:13:34.243Z,962.96
2022-07-31T16:18:35.752Z,962.93
2022-07-31T16:23:45.622Z,962.82
2022-07-31T16:28:39.283Z,962.8
2022-07-31T16:33:40.810Z,962.8
2022-07-31T16:38:45.840Z,962.75
2022-07-31T16:43:47.038Z,962.77
2022-07-31T16:48:46.097Z,962.69
2022-07-31T16:58:52.657Z,962.63
2022-07-31T17:03:58.477Z,962.62
2022-07-31T17:08:52.325Z,962.63
2022-07-31T17:13:53.700Z,962.62
2022-07-31T17:34:02.137Z,962.62
2022-07-31T17:54:07.164Z,962.67
2022-07-31T17:59:08.898Z,962.68
2022-07-31T18:09:11.953Z,962.72
2022-07-31T18:24:17.567Z,962.84
2022-07-31T18:29:19.634Z,962.88
2022-07-31T18:44:25.241Z,962.81
2022-07-31T18:50:58.030Z,962.82
2022-07-31T18:54:29.110Z,962.88
2022-07-31T18:59:39.433Z,962.86
2022-07-31T19:04:31.719Z,962.9
2022-07-31T19:09:33.138Z,962.94
2022-07-31T19:14:34.733Z,962.94
2022-07-31T19:19:39.272Z,963.01
2022-07-31T19:24:38.545Z,963
2022-07-31T19:29:39.980Z,962.99
2022-07-31T19:34:42.196Z,962.99
2022-07-31T19:39:43.609Z,963.03
2022-07-31T19:44:45.245Z,963.04
2022-07-31T19:49:47.383Z,963.07
2022-07-31T19:54:48.973Z,963.07
2022-07-31T19:59:50.276Z,963.03
2022-07-31T20:04:52.331Z,963.02
2022-07-31T20:09:53.705Z,962.96
2022-07-31T20:14:55.073Z,962.92
2022-07-31T20:20:03.069Z,962.9
2022-07-31T20:24:57.835Z,962.92
2022-07-31T20:29:59.199Z,962.88
2022-07-31T20:35:01.239Z,962.88
2022-07-31T20:40:03.141Z,962.86
2022-07-31T20:45:04.778Z,962.83
2022-07-31T20:50:06.870Z,962.8
2022-07-31T20:55:08.391Z,962.8
2022-07-31T21:00:10.321Z,962.79
2022-07-31T21:05:11.733Z,962.8
2022-07-31T21:10:13.056Z,962.76
2022-07-31T21:15:18.729Z,962.75
2022-07-31T21:20:16.805Z,962.69
2022-07-31T21:25:18.511Z,962.63
2022-07-31T21:30:19.790Z,962.61
2022-07-31T21:35:21.830Z,962.59
2022-07-31T21:40:23.293Z,962.63
2022-07-31T21:45:24.684Z,962.59
2022-07-31T21:50:28.881Z,962.58
2022-07-31T21:55:27.510Z,962.6
2022-07-31T22:15:50.665Z,962.64
2022-07-31T22:20:35.758Z,962.65
2022-07-31T22:25:37.635Z,962.68
2022-07-31T22:30:39.684Z,962.66
2022-07-31T22:35:41.640Z,962.62
2022-07-31T22:40:43.953Z,962.58
2022-07-31T22:45:45.329Z,962.6
2022-07-31T22:50:46.529Z,962.64
2022-07-31T22:55:47.960Z,962.6
2022-07-31T23:00:49.559Z,962.62
2022-07-31T23:06:02.160Z,962.6
2022-07-31T23:10:52.493Z,962.59
2022-07-31T23:15:54.505Z,962.61
2022-07-31T23:20:56.181Z,962.6
2022-07-31T23:25:57.419Z,962.62
2022-07-31T23:30:59.570Z,962.57
2022-07-31T23:36:01.312Z,962.61
2022-07-31T23:41:03.165Z,962.62
2022-07-31T23:46:05.269Z,962.65
2022-07-31T23:51:07.382Z,962.64
2022-07-31T23:56:14.369Z,962.63
